To NAV CANADA Home Page Login to a new session Search on AWWS site Feedback and Comments Disclaimer Vers la page française équivalente Tips FAQ What's new on the site To the Forecasts and Observations / NOTAM section To "File a Flight Plan" website Publications and other links Update of the User's profile FIC Telephone Numbers My Weather Data Folder Route Weather Data Regional Weather Data Local Weather Data To the Forecasts and Observations / NOTAM section
Request Generated 12/04/2016 at 22:21:56 UTC . Weather information available at that time is displayed.

METAR/TAF

NAIN/NL    

METAR CYDP 042200Z 28015G22KT 15SM FEW025 BKN043 M07/M13 A2982 RMK
SC2SC5 SLP099=
METAR CYDP 042100Z 30008KT 250V320 15SM SCT025 BKN043 M08/M13 A2982
RMK SC3SC4 SLP099=
METAR CYDP 042000Z 28003KT 260V340 15SM BKN025 BKN095 M08/M14 A2981
RMK SC6AC1 SLP098=

TAF CYDP 041938Z 0420/0424 29010KT P6SM SCT025 TEMPO 0420/0424 BKN025
RMK NXT FCST WILL BE ISSUED AT 051045Z=
Your time UTC time
Weather data provided by Environment Canada and NAV CANADA